Time,TemperatureF,DewpointF,PressureIn,WindDirection,WindDirectionDegrees,WindSpeedMPH,WindSpeedGustMPH,Humidity,HourlyPrecipIn,Conditions,Clouds,dailyrainin,SoftwareType,DateUTC
2013-07-19 00:05:00,82.9,74.9,29.98,SSW,203,3.0,3.0,77,0.00,,,0.00,Wunderground v.1.15,2013-07-19 04:05:00,
2013-07-19 00:10:00,82.5,74.9,29.98,South,190,3.0,4.0,78,0.00,,,0.00,Wunderground v.1.15,2013-07-19 04:10:00,
2013-07-19 00:15:00,82.3,75.1,29.98,South,190,3.0,3.0,79,0.00,,,0.00,Wunderground v.1.15,2013-07-19 04:15:00,
2013-07-19 00:20:00,81.9,75.1,29.98,South,190,3.0,3.0,80,0.00,,,0.00,Wunderground v.1.15,2013-07-19 04:20:00,
2013-07-19 00:25:00,81.9,75.1,29.98,South,190,3.0,3.0,80,0.00,,,0.00,Wunderground v.1.15,2013-07-19 04:25:00,
2013-07-19 00:30:00,81.7,74.9,29.98,South,190,2.0,3.0,80,0.00,,,0.00,Wunderground v.1.15,2013-07-19 04:30:00,
2013-07-19 00:40:00,81.9,75.1,29.98,SSE,167,2.0,3.0,80,0.00,,,0.00,Wunderground v.1.15,2013-07-19 04:40:00,
2013-07-19 00:50:00,81.5,75.1,29.98,SSE,167,1.0,1.0,81,0.00,,,0.00,Wunderground v.1.15,2013-07-19 04:50:00,
2013-07-19 00:55:00,81.3,75.3,29.98,SSE,167,1.0,2.0,82,0.00,,,0.00,Wunderground v.1.15,2013-07-19 04:55:00,
2013-07-19 01:05:00,81.5,75.5,29.98,South,191,4.0,4.0,82,0.00,,,0.00,Wunderground v.1.15,2013-07-19 05:05:00,
2013-07-19 01:10:00,81.5,75.5,29.98,South,191,3.0,4.0,82,0.00,,,0.00,Wunderground v.1.15,2013-07-19 05:10:00,
2013-07-19 01:25:00,81.1,75.4,29.98,South,191,2.0,2.0,83,0.00,,,0.00,Wunderground v.1.15,2013-07-19 05:25:00,
2013-07-19 01:30:00,80.9,75.6,29.98,South,191,1.0,3.0,84,0.00,,,0.00,Wunderground v.1.15,2013-07-19 05:30:00,
2013-07-19 01:35:00,80.7,75.8,29.98,South,191,2.0,5.0,85,0.00,,,0.00,Wunderground v.1.15,2013-07-19 05:35:00,
2013-07-19 01:40:00,80.6,75.7,29.98,SE,134,3.0,5.0,85,0.00,,,0.00,Wunderground v.1.15,2013-07-19 05:40:00,
2013-07-19 01:45:00,80.4,75.5,29.97,SE,134,3.0,3.0,85,0.00,,,0.00,Wunderground v.1.15,2013-07-19 05:45:00,
2013-07-19 01:50:00,80.2,75.6,29.97,SE,136,3.0,5.0,86,0.00,,,0.00,Wunderground v.1.15,2013-07-19 05:50:00,
2013-07-19 02:00:00,80.0,75.4,29.98,South,179,3.0,3.0,86,0.00,,,0.00,Wunderground v.1.15,2013-07-19 06:00:00,
2013-07-19 02:05:00,80.0,75.4,29.98,South,179,3.0,3.0,86,0.00,,,0.00,Wunderground v.1.15,2013-07-19 06:05:00,
2013-07-19 02:15:00,79.8,75.2,29.97,South,179,3.0,3.0,86,0.00,,,0.00,Wunderground v.1.15,2013-07-19 06:15:00,
2013-07-19 02:25:00,79.8,75.2,29.97,South,186,5.0,7.0,86,0.00,,,0.00,Wunderground v.1.15,2013-07-19 06:25:00,
2013-07-19 02:35:00,79.6,75.4,29.97,SSW,194,4.0,5.0,87,0.00,,,0.00,Wunderground v.1.15,2013-07-19 06:35:00,
2013-07-19 02:40:00,79.4,75.2,29.97,SSW,194,4.0,5.0,87,0.00,,,0.00,Wunderground v.1.15,2013-07-19 06:40:00,
2013-07-19 02:55:00,79.1,75.6,29.97,South,189,3.0,3.0,89,0.00,,,0.00,Wunderground v.1.15,2013-07-19 06:55:00,
2013-07-19 03:00:00,79.1,75.6,29.97,SW,221,2.0,2.0,89,0.00,,,0.00,Wunderground v.1.15,2013-07-19 07:00:00,
2013-07-19 03:10:00,78.9,75.7,29.98,South,188,1.0,4.0,90,0.00,,,0.00,Wunderground v.1.15,2013-07-19 07:10:00,
2013-07-19 03:15:00,78.7,75.5,29.98,South,188,2.0,2.0,90,0.00,,,0.00,Wunderground v.1.15,2013-07-19 07:15:00,
2013-07-19 03:25:00,78.5,75.7,29.97,South,188,2.0,3.0,91,0.00,,,0.00,Wunderground v.1.15,2013-07-19 07:25:00,
2013-07-19 03:35:00,78.1,75.3,29.97,South,188,2.0,2.0,91,0.00,,,0.00,Wunderground v.1.15,2013-07-19 07:35:00,
2013-07-19 03:40:00,78.1,75.3,29.97,South,188,2.0,3.0,91,0.00,,,0.00,Wunderground v.1.15,2013-07-19 07:40:00,
2013-07-19 03:45:00,78.1,75.3,29.97,South,188,3.0,3.0,91,0.00,,,0.00,Wunderground v.1.15,2013-07-19 07:45:00,
2013-07-19 03:55:00,78.1,75.3,29.97,South,188,2.0,3.0,91,0.00,,,0.00,Wunderground v.1.15,2013-07-19 07:55:00,
2013-07-19 04:00:00,78.1,75.3,29.97,South,188,1.0,1.0,91,0.00,,,0.00,Wunderground v.1.15,2013-07-19 08:00:00,
2013-07-19 04:10:00,78.0,75.5,29.97,South,188,2.0,2.0,92,0.00,,,0.00,Wunderground v.1.15,2013-07-19 08:10:00,
2013-07-19 04:20:00,77.8,75.3,29.97,South,188,3.0,3.0,92,0.00,,,0.00,Wunderground v.1.15,2013-07-19 08:20:00,
2013-07-19 04:30:00,77.8,75.6,29.97,South,188,2.0,2.0,93,0.00,,,0.00,Wunderground v.1.15,2013-07-19 08:30:00,
2013-07-19 04:35:00,77.6,75.4,29.97,South,188,2.0,2.0,93,0.00,,,0.00,Wunderground v.1.15,2013-07-19 08:35:00,
2013-07-19 04:40:00,77.6,75.4,29.97,South,188,1.0,2.0,93,0.00,,,0.00,Wunderground v.1.15,2013-07-19 08:40:00,
2013-07-19 04:50:00,77.6,75.4,29.97,South,188,2.0,2.0,93,0.00,,,0.00,Wunderground v.1.15,2013-07-19 08:50:00,
2013-07-19 05:05:00,77.6,75.4,29.97,South,188,2.0,3.0,93,0.00,,,0.00,Wunderground v.1.15,2013-07-19 09:05:00,
2013-07-19 05:15:00,77.4,75.2,29.97,South,188,2.0,4.0,93,0.00,,,0.00,Wunderground v.1.15,2013-07-19 09:15:00,
2013-07-19 05:25:00,77.4,75.2,29.97,South,188,2.0,4.0,93,0.00,,,0.00,Wunderground v.1.15,2013-07-19 09:25:00,
2013-07-19 05:35:00,77.6,75.1,29.97,South,188,3.0,4.0,92,0.00,,,0.00,Wunderground v.1.15,2013-07-19 09:35:00,
2013-07-19 05:45:00,77.4,75.2,29.97,South,188,2.0,3.0,93,0.00,,,0.00,Wunderground v.1.15,2013-07-19 09:45:00,
2013-07-19 05:55:00,77.4,75.2,29.97,SSW,200,3.0,3.0,93,0.00,,,0.00,Wunderground v.1.15,2013-07-19 09:55:00,
2013-07-19 06:05:00,77.2,75.0,29.97,SSW,200,1.0,2.0,93,0.00,,,0.00,Wunderground v.1.15,2013-07-19 10:05:00,
2013-07-19 06:15:00,76.9,75.0,29.97,South,169,3.0,3.0,94,0.00,,,0.00,Wunderground v.1.15,2013-07-19 10:15:00,
2013-07-19 06:25:00,76.7,74.8,29.97,South,176,3.0,3.0,94,0.00,,,0.00,Wunderground v.1.15,2013-07-19 10:25:00,
2013-07-19 06:30:00,76.7,74.8,29.97,South,174,3.0,3.0,94,0.00,,,0.00,Wunderground v.1.15,2013-07-19 10:30:00,
2013-07-19 06:35:00,76.9,75.0,29.96,SSW,196,3.0,6.0,94,0.00,,,0.00,Wunderground v.1.15,2013-07-19 10:35:00,
2013-07-19 06:45:00,76.9,75.0,29.97,SSW,199,5.0,5.0,94,0.00,,,0.00,Wunderground v.1.15,2013-07-19 10:45:00,
2013-07-19 06:50:00,76.9,75.0,29.97,SSW,200,6.0,6.0,94,0.00,,,0.00,Wunderground v.1.15,2013-07-19 10:50:00,
2013-07-19 06:55:00,76.9,75.0,29.97,South,186,6.0,6.0,94,0.00,,,0.00,Wunderground v.1.15,2013-07-19 10:55:00,
2013-07-19 07:05:00,77.1,74.9,29.97,SSW,192,4.0,6.0,93,0.00,,,0.00,Wunderground v.1.15,2013-07-19 11:05:00,
2013-07-19 07:10:00,77.2,75.0,29.97,South,188,4.0,4.0,93,0.00,,,0.00,Wunderground v.1.15,2013-07-19 11:10:00,
2013-07-19 07:15:00,77.4,74.9,29.97,South,188,4.0,4.0,92,0.00,,,0.00,Wunderground v.1.15,2013-07-19 11:15:00,
2013-07-19 07:25:00,78.0,75.2,29.98,SSE,157,3.0,3.0,91,0.00,,,0.00,Wunderground v.1.15,2013-07-19 11:25:00,
2013-07-19 07:30:00,78.3,75.5,29.97,SSE,152,3.0,3.0,91,0.00,,,0.00,Wunderground v.1.15,2013-07-19 11:30:00,
2013-07-19 07:35:00,78.7,75.5,29.97,SSE,168,3.0,4.0,90,0.00,,,0.00,Wunderground v.1.15,2013-07-19 11:35:00,
2013-07-19 07:45:00,79.4,75.2,29.97,SSE,168,3.0,4.0,87,0.00,,,0.00,Wunderground v.1.15,2013-07-19 11:45:00,
2013-07-19 07:50:00,79.6,75.4,29.97,SSE,168,3.0,3.0,87,0.00,,,0.00,Wunderground v.1.15,2013-07-19 11:50:00,
2013-07-19 08:00:00,80.4,74.8,29.97,SSE,168,2.0,3.0,83,0.00,,,0.00,Wunderground v.1.15,2013-07-19 12:00:00,
2013-07-19 08:10:00,81.1,75.1,29.97,SSE,168,2.0,2.0,82,0.00,,,0.00,Wunderground v.1.15,2013-07-19 12:10:00,
2013-07-19 08:15:00,81.7,75.3,29.97,SSE,168,3.0,3.0,81,0.00,,,0.00,Wunderground v.1.15,2013-07-19 12:15:00,
2013-07-19 08:25:00,82.1,75.3,29.97,SSE,168,3.0,3.0,80,0.00,,,0.00,Wunderground v.1.15,2013-07-19 12:25:00,
2013-07-19 08:30:00,82.5,75.7,29.97,SSE,168,3.0,6.0,80,0.00,,,0.00,Wunderground v.1.15,2013-07-19 12:30:00,
2013-07-19 08:40:00,82.7,75.1,29.97,SSE,167,4.0,4.0,78,0.00,,,0.00,Wunderground v.1.15,2013-07-19 12:40:00,
2013-07-19 08:50:00,83.6,75.6,29.97,SSE,165,4.0,4.0,77,0.00,,,0.00,Wunderground v.1.15,2013-07-19 12:50:00,
2013-07-19 09:00:00,83.8,75.8,29.97,South,171,5.0,5.0,77,0.00,,,0.00,Wunderground v.1.15,2013-07-19 13:00:00,
2013-07-19 09:10:00,84.4,76.0,29.97,South,173,4.0,4.0,76,0.00,,,0.00,Wunderground v.1.15,2013-07-19 13:10:00,
2013-07-19 09:15:00,84.8,76.4,29.97,SSE,166,4.0,5.0,76,0.00,,,0.00,Wunderground v.1.15,2013-07-19 13:15:00,
2013-07-19 09:20:00,85.0,76.6,29.97,South,169,4.0,4.0,76,0.00,,,0.00,Wunderground v.1.15,2013-07-19 13:20:00,
2013-07-19 09:30:00,85.8,75.3,29.97,South,180,3.0,5.0,71,0.00,,,0.00,Wunderground v.1.15,2013-07-19 13:30:00,
2013-07-19 09:35:00,85.8,76.1,29.97,SE,146,4.0,9.0,73,0.00,,,0.00,Wunderground v.1.15,2013-07-19 13:35:00,
2013-07-19 09:40:00,85.8,75.7,29.97,South,174,4.0,4.0,72,0.00,,,0.00,Wunderground v.1.15,2013-07-19 13:40:00,
2013-07-19 09:45:00,86.2,76.1,29.97,SSE,168,4.0,4.0,72,0.00,,,0.00,Wunderground v.1.15,2013-07-19 13:45:00,
2013-07-19 09:50:00,86.5,75.5,29.97,South,177,5.0,6.0,70,0.00,,,0.00,Wunderground v.1.15,2013-07-19 13:50:00,
2013-07-19 10:00:00,86.9,74.6,29.97,WSW,244,6.0,6.0,67,0.00,,,0.00,Wunderground v.1.15,2013-07-19 14:00:00,
2013-07-19 10:10:00,87.1,74.4,29.97,SSE,167,4.0,4.0,66,0.00,,,0.00,Wunderground v.1.15,2013-07-19 14:10:00,
2013-07-19 10:15:00,87.3,75.4,29.96,South,171,5.0,7.0,68,0.00,,,0.00,Wunderground v.1.15,2013-07-19 14:15:00,
2013-07-19 10:25:00,87.9,75.1,29.96,WNW,301,5.0,5.0,66,0.00,,,0.00,Wunderground v.1.15,2013-07-19 14:25:00,
2013-07-19 10:35:00,88.3,75.0,29.96,West,266,4.0,4.0,65,0.00,,,0.00,Wunderground v.1.15,2013-07-19 14:35:00,
2013-07-19 10:40:00,88.5,75.2,29.96,West,263,5.0,5.0,65,0.00,,,0.00,Wunderground v.1.15,2013-07-19 14:40:00,
2013-07-19 10:45:00,88.5,75.2,29.96,South,178,5.0,7.0,65,0.00,,,0.00,Wunderground v.1.15,2013-07-19 14:45:00,
2013-07-19 10:55:00,89.4,75.1,29.96,SSW,196,4.0,5.0,63,0.00,,,0.00,Wunderground v.1.15,2013-07-19 14:55:00,
2013-07-19 11:05:00,89.8,75.0,29.96,South,170,5.0,6.0,62,0.00,,,0.00,Wunderground v.1.15,2013-07-19 15:05:00,
2013-07-19 11:10:00,90.2,75.4,29.96,West,266,6.0,6.0,62,0.00,,,0.00,Wunderground v.1.15,2013-07-19 15:10:00,
2013-07-19 11:15:00,90.7,75.4,29.96,West,259,5.0,6.0,61,0.00,,,0.00,Wunderground v.1.15,2013-07-19 15:15:00,
2013-07-19 11:25:00,90.9,74.6,29.96,SSE,164,5.0,5.0,59,0.00,,,0.00,Wunderground v.1.15,2013-07-19 15:25:00,
2013-07-19 11:35:00,91.8,74.9,29.96,WSW,255,6.0,6.0,58,0.00,,,0.00,Wunderground v.1.15,2013-07-19 15:35:00,
2013-07-19 11:45:00,91.8,75.4,29.95,SW,225,7.0,7.0,59,0.00,,,0.00,Wunderground v.1.15,2013-07-19 15:45:00,
2013-07-19 11:55:00,92.7,74.2,29.95,South,188,6.0,6.0,55,0.00,,,0.00,Wunderground v.1.15,2013-07-19 15:55:00,
2013-07-19 12:05:00,92.9,73.2,29.94,West,269,7.0,7.0,53,0.00,,,0.00,Wunderground v.1.15,2013-07-19 16:05:00,
2013-07-19 12:10:00,93.1,73.4,29.94,SSW,208,7.0,7.0,53,0.00,,,0.00,Wunderground v.1.15,2013-07-19 16:10:00,
2013-07-19 12:20:00,92.9,74.4,29.94,WSW,245,5.0,14.0,55,0.00,,,0.00,Wunderground v.1.15,2013-07-19 16:20:00,
2013-07-19 12:30:00,93.1,74.0,29.93,SSE,167,6.0,14.0,54,0.00,,,0.00,Wunderground v.1.15,2013-07-19 16:30:00,
2013-07-19 12:35:00,93.3,74.7,29.93,West,277,5.0,12.0,55,0.00,,,0.00,Wunderground v.1.15,2013-07-19 16:35:00,
2013-07-19 12:40:00,93.1,74.5,29.93,WNW,283,5.0,12.0,55,0.00,,,0.00,Wunderground v.1.15,2013-07-19 16:40:00,
2013-07-19 12:50:00,93.1,74.5,29.93,WNW,288,5.0,5.0,55,0.00,,,0.00,Wunderground v.1.15,2013-07-19 16:50:00,
2013-07-19 12:55:00,92.7,74.2,29.93,NNW,338,6.0,8.0,55,0.00,,,0.00,Wunderground v.1.15,2013-07-19 16:55:00,
2013-07-19 13:00:00,92.0,73.5,29.93,WSW,257,6.0,6.0,55,0.00,,,0.00,Wunderground v.1.15,2013-07-19 17:00:00,
2013-07-19 13:10:00,92.4,73.9,29.93,West,264,6.0,6.0,55,0.00,,,0.00,Wunderground v.1.15,2013-07-19 17:10:00,
2013-07-19 13:20:00,92.4,73.3,29.93,WSW,238,5.0,6.0,54,0.00,,,0.00,Wunderground v.1.15,2013-07-19 17:20:00,
2013-07-19 13:25:00,93.1,74.0,29.92,WSW,242,4.0,5.0,54,0.00,,,0.00,Wunderground v.1.15,2013-07-19 17:25:00,
2013-07-19 13:30:00,93.8,71.7,29.92,WSW,252,5.0,9.0,49,0.00,,,0.00,Wunderground v.1.15,2013-07-19 17:30:00,
2013-07-19 13:40:00,93.3,73.6,29.91,WSW,248,5.0,6.0,53,0.00,,,0.00,Wunderground v.1.15,2013-07-19 17:40:00,
2013-07-19 13:50:00,94.4,72.3,29.91,WSW,237,7.0,7.0,49,0.00,,,0.00,Wunderground v.1.15,2013-07-19 17:50:00,
2013-07-19 13:55:00,94.6,72.5,29.91,West,272,7.0,7.0,49,0.00,,,0.00,Wunderground v.1.15,2013-07-19 17:55:00,
2013-07-19 14:05:00,95.4,73.2,29.90,South,178,7.0,13.0,49,0.00,,,0.00,Wunderground v.1.15,2013-07-19 18:05:00,
2013-07-19 14:10:00,95.4,71.3,29.90,SSW,203,7.0,13.0,46,0.00,,,0.00,Wunderground v.1.15,2013-07-19 18:10:00,
2013-07-19 14:20:00,94.9,72.1,29.89,SSE,156,5.0,8.0,48,0.00,,,0.00,Wunderground v.1.15,2013-07-19 18:20:00,
2013-07-19 14:35:00,95.6,73.4,29.88,WSW,252,7.0,7.0,49,0.00,,,0.00,Wunderground v.1.15,2013-07-19 18:35:00,
2013-07-19 14:40:00,94.9,72.8,29.88,South,173,6.0,7.0,49,0.00,,,0.00,Wunderground v.1.15,2013-07-19 18:40:00,
2013-07-19 14:55:00,95.1,71.7,29.87,WSW,242,6.0,6.0,47,0.00,,,0.00,Wunderground v.1.15,2013-07-19 18:55:00,
2013-07-19 15:05:00,95.4,70.0,29.86,South,169,5.0,6.0,44,0.00,,,0.00,Wunderground v.1.15,2013-07-19 19:05:00,
2013-07-19 15:10:00,95.8,71.7,29.86,West,259,6.0,6.0,46,0.00,,,0.00,Wunderground v.1.15,2013-07-19 19:10:00,
2013-07-19 15:20:00,96.1,70.7,29.85,WNW,289,6.0,6.0,44,0.00,,,0.00,Wunderground v.1.15,2013-07-19 19:20:00,
2013-07-19 15:25:00,96.3,71.5,29.86,South,180,5.0,9.0,45,0.00,,,0.00,Wunderground v.1.15,2013-07-19 19:25:00,
2013-07-19 15:35:00,95.8,71.7,29.85,South,185,7.0,10.0,46,0.00,,,0.00,Wunderground v.1.15,2013-07-19 19:35:00,
2013-07-19 15:45:00,96.1,70.7,29.85,SSW,213,6.0,6.0,44,0.00,,,0.00,Wunderground v.1.15,2013-07-19 19:45:00,
2013-07-19 16:00:00,96.3,70.8,29.85,WSW,244,5.0,5.0,44,0.00,,,0.00,Wunderground v.1.15,2013-07-19 20:00:00,
2013-07-19 16:05:00,96.6,70.4,29.85,SSW,206,6.0,8.0,43,0.00,,,0.00,Wunderground v.1.15,2013-07-19 20:05:00,
2013-07-19 16:15:00,96.8,72.0,29.84,WSW,238,8.0,8.0,45,0.00,,,0.00,Wunderground v.1.15,2013-07-19 20:15:00,
2013-07-19 16:25:00,96.3,71.5,29.83,SSE,149,6.0,9.0,45,0.00,,,0.00,Wunderground v.1.15,2013-07-19 20:25:00,
2013-07-19 16:35:00,96.3,71.5,29.83,South,178,8.0,8.0,45,0.00,,,0.00,Wunderground v.1.15,2013-07-19 20:35:00,
2013-07-19 16:40:00,95.6,70.9,29.83,SSW,207,8.0,10.0,45,0.00,,,0.00,Wunderground v.1.15,2013-07-19 20:40:00,
2013-07-19 16:50:00,95.1,72.9,29.83,South,188,6.0,10.0,49,0.00,,,0.00,Wunderground v.1.15,2013-07-19 20:50:00,
2013-07-19 17:00:00,94.9,71.5,29.83,South,175,7.0,7.0,47,0.00,,,0.00,Wunderground v.1.15,2013-07-19 21:00:00,
2013-07-19 17:10:00,94.0,71.9,29.83,South,175,8.0,11.0,49,0.00,,,0.00,Wunderground v.1.15,2013-07-19 21:10:00,
2013-07-19 17:15:00,94.0,73.1,29.83,South,183,9.0,9.0,51,0.00,,,0.00,Wunderground v.1.15,2013-07-19 21:15:00,
2013-07-19 17:20:00,94.0,73.1,29.83,SE,144,10.0,10.0,51,0.00,,,0.00,Wunderground v.1.15,2013-07-19 21:20:00,
2013-07-19 17:35:00,92.9,73.8,29.82,SSW,194,9.0,9.0,54,0.00,,,0.00,Wunderground v.1.15,2013-07-19 21:35:00,
2013-07-19 17:40:00,92.2,73.7,29.82,SSE,153,9.0,9.0,55,0.00,,,0.00,Wunderground v.1.15,2013-07-19 21:40:00,
2013-07-19 17:45:00,91.6,73.7,29.82,South,190,7.0,7.0,56,0.00,,,0.00,Wunderground v.1.15,2013-07-19 21:45:00,
2013-07-19 17:55:00,90.5,73.2,29.82,SE,146,8.0,8.0,57,0.00,,,0.00,Wunderground v.1.15,2013-07-19 21:55:00,
2013-07-19 18:00:00,90.0,73.2,29.83,South,169,7.0,9.0,58,0.00,,,0.00,Wunderground v.1.15,2013-07-19 22:00:00,
2013-07-19 18:10:00,89.6,72.3,29.83,SSW,203,8.0,8.0,57,0.00,,,0.00,Wunderground v.1.15,2013-07-19 22:10:00,
2013-07-19 18:15:00,89.4,72.7,29.83,SSE,167,9.0,9.0,58,0.00,,,0.00,Wunderground v.1.15,2013-07-19 22:15:00,
2013-07-19 18:25:00,88.8,72.6,29.82,SSW,196,9.0,10.0,59,0.00,,,0.00,Wunderground v.1.15,2013-07-19 22:25:00,
2013-07-19 18:35:00,88.3,72.7,29.84,SSE,150,6.0,6.0,60,0.00,,,0.00,Wunderground v.1.15,2013-07-19 22:35:00,
2013-07-19 18:50:00,83.1,73.1,29.92,WNW,293,11.0,14.0,72,0.00,,,0.01,Wunderground v.1.15,2013-07-19 22:50:00,
2013-07-19 18:55:00,78.5,70.7,29.93,NW,309,13.0,14.0,77,7.02,,,0.21,Wunderground v.1.15,2013-07-19 22:55:00,
2013-07-19 19:00:00,74.6,70.5,29.91,NNW,344,14.0,21.0,87,2.73,,,0.54,Wunderground v.1.15,2013-07-19 23:00:00,
2013-07-19 19:05:00,73.2,70.4,29.90,WNW,288,14.0,21.0,91,0.66,,,0.64,Wunderground v.1.15,2013-07-19 23:05:00,
2013-07-19 19:20:00,72.0,69.2,29.88,WNW,296,5.0,5.0,91,0.32,,,0.76,Wunderground v.1.15,2013-07-19 23:20:00,
2013-07-19 19:30:00,71.6,69.8,29.88,East,92,5.0,7.0,94,0.06,,,0.76,Wunderground v.1.15,2013-07-19 23:30:00,
2013-07-19 19:40:00,71.6,69.8,29.87,NNW,337,5.0,5.0,94,0.00,,,0.76,Wunderground v.1.15,2013-07-19 23:40:00,
2013-07-19 19:45:00,71.8,70.0,29.87,NNW,337,4.0,5.0,94,0.00,,,0.76,Wunderground v.1.15,2013-07-19 23:45:00,
2013-07-19 19:55:00,71.6,70.1,29.87,ESE,109,3.0,4.0,95,0.00,,,0.76,Wunderground v.1.15,2013-07-19 23:55:00,
2013-07-19 20:05:00,71.5,70.0,29.88,NE,52,5.0,5.0,95,0.00,,,0.76,Wunderground v.1.15,2013-07-20 00:05:00,
2013-07-19 20:10:00,71.5,70.3,29.88,East,94,4.0,5.0,96,0.00,,,0.76,Wunderground v.1.15,2013-07-20 00:10:00,
2013-07-19 20:20:00,71.1,69.9,29.87,East,79,2.0,2.0,96,0.00,,,0.76,Wunderground v.1.15,2013-07-20 00:20:00,
2013-07-19 20:35:00,71.5,70.3,29.88,NNE,21,3.0,3.0,96,0.00,,,0.76,Wunderground v.1.15,2013-07-20 00:35:00,
2013-07-19 20:50:00,71.8,70.6,29.87,NNE,21,1.0,1.0,96,0.00,,,0.76,Wunderground v.1.15,2013-07-20 00:50:00,
2013-07-19 21:10:00,72.2,71.0,29.87,South,187,1.0,2.0,96,0.00,,,0.76,Wunderground v.1.15,2013-07-20 01:10:00,
2013-07-19 21:20:00,72.3,71.1,29.87,South,187,1.0,2.0,96,0.00,,,0.76,Wunderground v.1.15,2013-07-20 01:20:00,
2013-07-19 21:35:00,72.2,70.7,29.87,South,187,2.0,2.0,95,0.00,,,0.76,Wunderground v.1.15,2013-07-20 01:35:00,
2013-07-19 21:50:00,72.2,71.0,29.86,South,187,2.0,2.0,96,0.00,,,0.76,Wunderground v.1.15,2013-07-20 01:50:00,
2013-07-19 22:05:00,72.0,70.8,29.86,South,187,2.0,2.0,96,0.00,,,0.76,Wunderground v.1.15,2013-07-20 02:05:00,
2013-07-19 22:10:00,72.2,71.3,29.87,South,187,1.0,2.0,97,0.00,,,0.76,Wunderground v.1.15,2013-07-20 02:10:00,
2013-07-19 22:25:00,72.2,71.0,29.86,South,187,1.0,1.0,96,0.00,,,0.76,Wunderground v.1.15,2013-07-20 02:25:00,
2013-07-19 22:35:00,72.3,70.8,29.87,South,187,1.0,1.0,95,0.00,,,0.76,Wunderground v.1.15,2013-07-20 02:35:00,
2013-07-19 22:55:00,72.3,70.8,29.88,South,187,1.0,2.0,95,0.00,,,0.76,Wunderground v.1.15,2013-07-20 02:55:00,
2013-07-19 23:05:00,72.3,70.5,29.88,South,187,1.0,1.0,94,0.00,,,0.76,Wunderground v.1.15,2013-07-20 03:05:00,
2013-07-19 23:10:00,72.3,70.5,29.88,South,187,1.0,1.0,94,0.00,,,0.76,Wunderground v.1.15,2013-07-20 03:10:00,
2013-07-19 23:20:00,72.3,70.8,29.88,South,187,1.0,1.0,95,0.00,,,0.76,Wunderground v.1.15,2013-07-20 03:20:00,
2013-07-19 23:25:00,72.2,70.7,29.87,South,187,0.0,1.0,95,0.00,,,0.76,Wunderground v.1.15,2013-07-20 03:25:00,
2013-07-19 23:35:00,72.0,70.5,29.86,South,187,0.0,0.0,95,0.00,,,0.76,Wunderground v.1.15,2013-07-20 03:35:00,
2013-07-19 23:50:00,71.8,70.3,29.85,South,187,1.0,2.0,95,0.00,,,0.76,Wunderground v.1.15,2013-07-20 03:50:00,